sensor_id;sensor_type;location;lat;lon;timestamp;temperature;humidity
9837;DHT22;4957;51.412;6.724;2022-08-21T00:02:17;20.60;59.40
9837;DHT22;4957;51.412;6.724;2022-08-21T00:04:45;20.60;60.00
9837;DHT22;4957;51.412;6.724;2022-08-21T00:07:11;20.60;59.50
9837;DHT22;4957;51.412;6.724;2022-08-21T00:09:37;20.60;59.50
9837;DHT22;4957;51.412;6.724;2022-08-21T00:12:03;20.60;59.60
9837;DHT22;4957;51.412;6.724;2022-08-21T00:14:29;20.50;59.50
9837;DHT22;4957;51.412;6.724;2022-08-21T00:16:55;20.60;59.80
9837;DHT22;4957;51.412;6.724;2022-08-21T00:19:21;20.50;59.90
9837;DHT22;4957;51.412;6.724;2022-08-21T00:21:51;20.50;59.80
9837;DHT22;4957;51.412;6.724;2022-08-21T00:24:18;20.50;60.00
9837;DHT22;4957;51.412;6.724;2022-08-21T00:26:44;20.50;59.80
9837;DHT22;4957;51.412;6.724;2022-08-21T00:29:09;20.50;59.70
9837;DHT22;4957;51.412;6.724;2022-08-21T00:31:36;20.40;59.70
9837;DHT22;4957;51.412;6.724;2022-08-21T00:34:02;20.40;59.60
9837;DHT22;4957;51.412;6.724;2022-08-21T00:36:28;20.40;59.70
9837;DHT22;4957;51.412;6.724;2022-08-21T00:38:54;20.40;59.90
9837;DHT22;4957;51.412;6.724;2022-08-21T00:41:20;20.30;59.60
9837;DHT22;4957;51.412;6.724;2022-08-21T00:43:48;20.30;59.60
9837;DHT22;4957;51.412;6.724;2022-08-21T00:46:14;20.30;59.70
9837;DHT22;4957;51.412;6.724;2022-08-21T00:48:40;20.20;59.80
9837;DHT22;4957;51.412;6.724;2022-08-21T00:51:10;20.20;60.10
9837;DHT22;4957;51.412;6.724;2022-08-21T00:53:40;20.10;60.00
9837;DHT22;4957;51.412;6.724;2022-08-21T00:56:09;20.10;60.20
9837;DHT22;4957;51.412;6.724;2022-08-21T00:58:36;20.00;60.20
9837;DHT22;4957;51.412;6.724;2022-08-21T01:01:05;19.90;60.30
9837;DHT22;4957;51.412;6.724;2022-08-21T01:03:31;19.90;60.80
9837;DHT22;4957;51.412;6.724;2022-08-21T01:05:57;19.90;60.40
9837;DHT22;4957;51.412;6.724;2022-08-21T01:08:22;19.80;60.70
9837;DHT22;4957;51.412;6.724;2022-08-21T01:10:49;19.90;60.50
9837;DHT22;4957;51.412;6.724;2022-08-21T01:13:17;19.80;60.30
9837;DHT22;4957;51.412;6.724;2022-08-21T01:15:46;19.80;60.70
9837;DHT22;4957;51.412;6.724;2022-08-21T01:18:14;19.80;60.60
9837;DHT22;4957;51.412;6.724;2022-08-21T01:21:12;19.70;60.30
9837;DHT22;4957;51.412;6.724;2022-08-21T01:23:41;19.70;61.30
9837;DHT22;4957;51.412;6.724;2022-08-21T01:26:07;19.70;60.70
9837;DHT22;4957;51.412;6.724;2022-08-21T01:28:41;19.60;60.90
9837;DHT22;4957;51.412;6.724;2022-08-21T01:31:08;19.60;61.50
9837;DHT22;4957;51.412;6.724;2022-08-21T01:33:36;19.60;60.80
9837;DHT22;4957;51.412;6.724;2022-08-21T01:36:02;19.60;61.00
9837;DHT22;4957;51.412;6.724;2022-08-21T01:38:27;19.50;61.20
9837;DHT22;4957;51.412;6.724;2022-08-21T01:40:53;19.50;61.00
9837;DHT22;4957;51.412;6.724;2022-08-21T01:43:19;19.50;60.90
9837;DHT22;4957;51.412;6.724;2022-08-21T01:45:44;19.40;60.60
9837;DHT22;4957;51.412;6.724;2022-08-21T01:48:10;19.40;60.70
9837;DHT22;4957;51.412;6.724;2022-08-21T01:50:36;19.30;60.60
9837;DHT22;4957;51.412;6.724;2022-08-21T01:53:02;19.30;61.20
9837;DHT22;4957;51.412;6.724;2022-08-21T01:55:27;19.20;62.10
9837;DHT22;4957;51.412;6.724;2022-08-21T01:57:53;19.20;61.70
9837;DHT22;4957;51.412;6.724;2022-08-21T02:00:21;19.20;61.50
9837;DHT22;4957;51.412;6.724;2022-08-21T02:02:50;19.10;61.80
9837;DHT22;4957;51.412;6.724;2022-08-21T02:05:19;19.10;61.40
9837;DHT22;4957;51.412;6.724;2022-08-21T02:07:48;19.10;62.00
9837;DHT22;4957;51.412;6.724;2022-08-21T02:10:17;19.00;62.00
9837;DHT22;4957;51.412;6.724;2022-08-21T02:12:43;19.00;62.20
9837;DHT22;4957;51.412;6.724;2022-08-21T02:15:09;18.90;62.30
9837;DHT22;4957;51.412;6.724;2022-08-21T02:17:47;18.90;62.10
9837;DHT22;4957;51.412;6.724;2022-08-21T02:20:23;18.90;63.60
9837;DHT22;4957;51.412;6.724;2022-08-21T02:22:50;18.80;63.40
9837;DHT22;4957;51.412;6.724;2022-08-21T02:25:17;18.80;63.10
9837;DHT22;4957;51.412;6.724;2022-08-21T02:27:45;18.80;63.80
9837;DHT22;4957;51.412;6.724;2022-08-21T02:30:15;18.80;64.00
9837;DHT22;4957;51.412;6.724;2022-08-21T02:32:41;18.80;64.00
9837;DHT22;4957;51.412;6.724;2022-08-21T02:35:08;18.70;63.80
9837;DHT22;4957;51.412;6.724;2022-08-21T02:37:41;18.70;64.30
9837;DHT22;4957;51.412;6.724;2022-08-21T02:40:07;18.70;64.60
9837;DHT22;4957;51.412;6.724;2022-08-21T02:42:36;18.70;65.00
9837;DHT22;4957;51.412;6.724;2022-08-21T02:45:04;18.70;65.00
9837;DHT22;4957;51.412;6.724;2022-08-21T02:47:30;18.70;65.00
9837;DHT22;4957;51.412;6.724;2022-08-21T02:49:55;18.70;65.20
9837;DHT22;4957;51.412;6.724;2022-08-21T02:52:21;18.70;65.00
9837;DHT22;4957;51.412;6.724;2022-08-21T02:54:47;18.70;65.00
9837;DHT22;4957;51.412;6.724;2022-08-21T02:57:13;18.70;65.20
9837;DHT22;4957;51.412;6.724;2022-08-21T02:59:38;18.70;65.10
9837;DHT22;4957;51.412;6.724;2022-08-21T03:02:06;18.70;65.00
9837;DHT22;4957;51.412;6.724;2022-08-21T03:04:32;18.70;65.00
9837;DHT22;4957;51.412;6.724;2022-08-21T03:06:57;18.60;64.90
9837;DHT22;4957;51.412;6.724;2022-08-21T03:09:23;18.60;64.90
9837;DHT22;4957;51.412;6.724;2022-08-21T03:11:50;18.50;64.80
9837;DHT22;4957;51.412;6.724;2022-08-21T03:14:17;18.50;64.80
9837;DHT22;4957;51.412;6.724;2022-08-21T03:16:43;18.40;64.80
9837;DHT22;4957;51.412;6.724;2022-08-21T03:19:09;18.40;65.20
9837;DHT22;4957;51.412;6.724;2022-08-21T03:21:34;18.30;65.20
9837;DHT22;4957;51.412;6.724;2022-08-21T03:24:00;18.30;65.40
9837;DHT22;4957;51.412;6.724;2022-08-21T03:26:26;18.30;65.60
9837;DHT22;4957;51.412;6.724;2022-08-21T03:28:51;18.20;66.00
9837;DHT22;4957;51.412;6.724;2022-08-21T03:31:17;18.20;66.00
9837;DHT22;4957;51.412;6.724;2022-08-21T03:33:43;18.10;66.10
9837;DHT22;4957;51.412;6.724;2022-08-21T03:36:10;18.10;66.50
9837;DHT22;4957;51.412;6.724;2022-08-21T03:38:37;18.10;66.80
9837;DHT22;4957;51.412;6.724;2022-08-21T03:41:04;18.10;66.70
9837;DHT22;4957;51.412;6.724;2022-08-21T03:43:30;18.00;66.60
9837;DHT22;4957;51.412;6.724;2022-08-21T03:45:56;18.00;66.80
9837;DHT22;4957;51.412;6.724;2022-08-21T03:48:22;18.00;66.80
9837;DHT22;4957;51.412;6.724;2022-08-21T03:50:48;17.90;66.80
9837;DHT22;4957;51.412;6.724;2022-08-21T03:53:16;17.90;66.80
9837;DHT22;4957;51.412;6.724;2022-08-21T03:55:42;17.90;66.90
9837;DHT22;4957;51.412;6.724;2022-08-21T03:58:08;17.90;67.30
9837;DHT22;4957;51.412;6.724;2022-08-21T04:00:34;17.90;67.50
9837;DHT22;4957;51.412;6.724;2022-08-21T04:03:00;17.80;66.90
9837;DHT22;4957;51.412;6.724;2022-08-21T04:05:26;17.80;66.70
9837;DHT22;4957;51.412;6.724;2022-08-21T04:08:02;17.80;67.30
9837;DHT22;4957;51.412;6.724;2022-08-21T04:10:30;17.80;67.10
9837;DHT22;4957;51.412;6.724;2022-08-21T04:12:56;17.80;66.70
9837;DHT22;4957;51.412;6.724;2022-08-21T04:15:24;17.70;66.70
9837;DHT22;4957;51.412;6.724;2022-08-21T04:17:50;17.70;67.00
9837;DHT22;4957;51.412;6.724;2022-08-21T04:20:20;17.70;67.70
9837;DHT22;4957;51.412;6.724;2022-08-21T04:22:47;17.70;68.10
9837;DHT22;4957;51.412;6.724;2022-08-21T04:25:15;17.70;67.20
9837;DHT22;4957;51.412;6.724;2022-08-21T04:27:41;17.60;67.40
9837;DHT22;4957;51.412;6.724;2022-08-21T04:30:08;17.60;67.50
9837;DHT22;4957;51.412;6.724;2022-08-21T04:32:35;17.60;67.50
9837;DHT22;4957;51.412;6.724;2022-08-21T04:35:05;17.50;67.90
9837;DHT22;4957;51.412;6.724;2022-08-21T04:37:31;17.50;67.90
9837;DHT22;4957;51.412;6.724;2022-08-21T04:39:57;17.40;67.80
9837;DHT22;4957;51.412;6.724;2022-08-21T04:42:24;17.40;68.40
9837;DHT22;4957;51.412;6.724;2022-08-21T04:44:52;17.40;68.80
9837;DHT22;4957;51.412;6.724;2022-08-21T04:47:18;17.40;69.10
9837;DHT22;4957;51.412;6.724;2022-08-21T04:49:53;17.30;69.10
9837;DHT22;4957;51.412;6.724;2022-08-21T04:52:21;17.30;69.80
9837;DHT22;4957;51.412;6.724;2022-08-21T04:54:50;17.20;69.80
9837;DHT22;4957;51.412;6.724;2022-08-21T04:57:18;17.30;70.40
9837;DHT22;4957;51.412;6.724;2022-08-21T04:59:49;17.20;70.20
9837;DHT22;4957;51.412;6.724;2022-08-21T05:02:16;17.20;70.60
9837;DHT22;4957;51.412;6.724;2022-08-21T05:04:46;17.20;70.90
9837;DHT22;4957;51.412;6.724;2022-08-21T05:07:18;17.20;70.90
9837;DHT22;4957;51.412;6.724;2022-08-21T05:09:45;17.20;71.50
9837;DHT22;4957;51.412;6.724;2022-08-21T05:12:11;17.20;71.00
9837;DHT22;4957;51.412;6.724;2022-08-21T05:14:37;17.20;71.60
9837;DHT22;4957;51.412;6.724;2022-08-21T05:17:03;17.20;71.90
9837;DHT22;4957;51.412;6.724;2022-08-21T05:19:29;17.20;72.20
9837;DHT22;4957;51.412;6.724;2022-08-21T05:21:55;17.20;72.30
9837;DHT22;4957;51.412;6.724;2022-08-21T05:24:21;17.20;72.90
9837;DHT22;4957;51.412;6.724;2022-08-21T05:26:47;17.20;73.10
9837;DHT22;4957;51.412;6.724;2022-08-21T05:29:14;17.20;73.60
9837;DHT22;4957;51.412;6.724;2022-08-21T05:31:40;17.30;74.00
9837;DHT22;4957;51.412;6.724;2022-08-21T05:34:05;17.20;74.40
9837;DHT22;4957;51.412;6.724;2022-08-21T05:36:31;17.30;75.20
9837;DHT22;4957;51.412;6.724;2022-08-21T05:38:57;17.30;76.90
9837;DHT22;4957;51.412;6.724;2022-08-21T05:41:23;17.30;77.10
9837;DHT22;4957;51.412;6.724;2022-08-21T05:43:49;17.40;78.00
9837;DHT22;4957;51.412;6.724;2022-08-21T05:46:15;17.40;79.10
9837;DHT22;4957;51.412;6.724;2022-08-21T05:48:40;17.40;80.00
9837;DHT22;4957;51.412;6.724;2022-08-21T05:51:11;17.50;81.80
9837;DHT22;4957;51.412;6.724;2022-08-21T05:53:37;17.50;83.10
9837;DHT22;4957;51.412;6.724;2022-08-21T05:56:03;17.60;84.00
9837;DHT22;4957;51.412;6.724;2022-08-21T05:58:31;17.70;84.30
9837;DHT22;4957;51.412;6.724;2022-08-21T06:00:58;17.70;84.10
9837;DHT22;4957;51.412;6.724;2022-08-21T06:03:27;17.70;83.20
9837;DHT22;4957;51.412;6.724;2022-08-21T06:05:53;17.80;83.60
9837;DHT22;4957;51.412;6.724;2022-08-21T06:08:20;17.90;83.10
9837;DHT22;4957;51.412;6.724;2022-08-21T06:10:47;18.00;83.30
9837;DHT22;4957;51.412;6.724;2022-08-21T06:13:15;18.00;83.10
9837;DHT22;4957;51.412;6.724;2022-08-21T06:15:41;18.10;82.80
9837;DHT22;4957;51.412;6.724;2022-08-21T06:18:06;18.20;82.30
9837;DHT22;4957;51.412;6.724;2022-08-21T06:20:32;18.30;81.90
9837;DHT22;4957;51.412;6.724;2022-08-21T06:22:58;18.40;81.60
9837;DHT22;4957;51.412;6.724;2022-08-21T06:25:24;18.50;81.10
9837;DHT22;4957;51.412;6.724;2022-08-21T06:27:50;18.60;80.60
9837;DHT22;4957;51.412;6.724;2022-08-21T06:30:16;18.70;79.80
9837;DHT22;4957;51.412;6.724;2022-08-21T06:32:42;18.80;79.00
9837;DHT22;4957;51.412;6.724;2022-08-21T06:35:09;18.90;78.30
9837;DHT22;4957;51.412;6.724;2022-08-21T06:37:35;19.00;77.80
9837;DHT22;4957;51.412;6.724;2022-08-21T06:40:02;19.20;77.10
9837;DHT22;4957;51.412;6.724;2022-08-21T06:42:28;19.30;76.60
9837;DHT22;4957;51.412;6.724;2022-08-21T06:44:54;19.40;76.00
9837;DHT22;4957;51.412;6.724;2022-08-21T06:47:20;19.50;75.70
9837;DHT22;4957;51.412;6.724;2022-08-21T06:49:45;19.70;75.00
9837;DHT22;4957;51.412;6.724;2022-08-21T06:52:13;19.90;74.40
9837;DHT22;4957;51.412;6.724;2022-08-21T06:54:40;20.00;73.60
9837;DHT22;4957;51.412;6.724;2022-08-21T06:57:06;20.10;72.80
9837;DHT22;4957;51.412;6.724;2022-08-21T06:59:32;20.30;72.10
9837;DHT22;4957;51.412;6.724;2022-08-21T07:01:59;20.50;71.60
9837;DHT22;4957;51.412;6.724;2022-08-21T07:04:25;20.60;71.00
9837;DHT22;4957;51.412;6.724;2022-08-21T07:06:51;20.80;71.00
9837;DHT22;4957;51.412;6.724;2022-08-21T07:09:17;20.90;69.50
9837;DHT22;4957;51.412;6.724;2022-08-21T07:11:44;21.10;68.90
9837;DHT22;4957;51.412;6.724;2022-08-21T07:14:11;21.30;68.60
9837;DHT22;4957;51.412;6.724;2022-08-21T07:16:37;21.50;67.80
9837;DHT22;4957;51.412;6.724;2022-08-21T07:19:02;21.60;67.00
9837;DHT22;4957;51.412;6.724;2022-08-21T07:21:28;21.80;66.30
9837;DHT22;4957;51.412;6.724;2022-08-21T07:23:54;22.00;65.60
9837;DHT22;4957;51.412;6.724;2022-08-21T07:26:22;22.20;65.00
9837;DHT22;4957;51.412;6.724;2022-08-21T07:28:48;22.40;64.20
9837;DHT22;4957;51.412;6.724;2022-08-21T07:31:18;22.60;63.40
9837;DHT22;4957;51.412;6.724;2022-08-21T07:33:45;22.80;62.80
9837;DHT22;4957;51.412;6.724;2022-08-21T07:36:11;22.90;61.10
9837;DHT22;4957;51.412;6.724;2022-08-21T07:38:37;23.10;60.10
9837;DHT22;4957;51.412;6.724;2022-08-21T07:41:12;23.30;59.70
9837;DHT22;4957;51.412;6.724;2022-08-21T07:43:39;23.40;59.10
9837;DHT22;4957;51.412;6.724;2022-08-21T07:46:05;23.50;58.60
9837;DHT22;4957;51.412;6.724;2022-08-21T07:48:30;23.70;58.00
9837;DHT22;4957;51.412;6.724;2022-08-21T07:50:56;23.80;57.50
9837;DHT22;4957;51.412;6.724;2022-08-21T07:53:23;23.90;56.90
9837;DHT22;4957;51.412;6.724;2022-08-21T07:55:49;24.00;56.60
9837;DHT22;4957;51.412;6.724;2022-08-21T07:58:14;24.20;56.30
9837;DHT22;4957;51.412;6.724;2022-08-21T08:00:40;24.40;56.10
9837;DHT22;4957;51.412;6.724;2022-08-21T08:03:06;24.50;55.70
9837;DHT22;4957;51.412;6.724;2022-08-21T08:05:32;24.70;55.30
9837;DHT22;4957;51.412;6.724;2022-08-21T08:07:58;24.80;54.90
9837;DHT22;4957;51.412;6.724;2022-08-21T08:10:25;25.00;54.50
9837;DHT22;4957;51.412;6.724;2022-08-21T08:12:52;25.10;54.00
9837;DHT22;4957;51.412;6.724;2022-08-21T08:15:22;25.30;53.60
9837;DHT22;4957;51.412;6.724;2022-08-21T08:17:48;25.40;53.10
9837;DHT22;4957;51.412;6.724;2022-08-21T08:20:16;25.60;52.90
9837;DHT22;4957;51.412;6.724;2022-08-21T08:22:42;25.80;52.50
9837;DHT22;4957;51.412;6.724;2022-08-21T08:25:09;26.00;52.20
9837;DHT22;4957;51.412;6.724;2022-08-21T08:27:35;26.10;51.80
9837;DHT22;4957;51.412;6.724;2022-08-21T08:30:01;26.30;51.50
9837;DHT22;4957;51.412;6.724;2022-08-21T08:32:27;26.50;51.10
9837;DHT22;4957;51.412;6.724;2022-08-21T08:34:52;26.60;50.50
9837;DHT22;4957;51.412;6.724;2022-08-21T08:37:19;26.80;50.20
9837;DHT22;4957;51.412;6.724;2022-08-21T08:39:45;26.90;50.00
9837;DHT22;4957;51.412;6.724;2022-08-21T08:44:43;27.30;49.20
9837;DHT22;4957;51.412;6.724;2022-08-21T08:47:12;27.50;48.80
9837;DHT22;4957;51.412;6.724;2022-08-21T08:52:30;28.00;47.60
9837;DHT22;4957;51.412;6.724;2022-08-21T08:55:18;28.20;47.40
9837;DHT22;4957;51.412;6.724;2022-08-21T08:57:47;28.50;46.40
9837;DHT22;4957;51.412;6.724;2022-08-21T09:00:17;28.70;46.40
9837;DHT22;4957;51.412;6.724;2022-08-21T09:02:44;28.90;45.80
9837;DHT22;4957;51.412;6.724;2022-08-21T09:05:26;29.00;45.40
9837;DHT22;4957;51.412;6.724;2022-08-21T09:14:13;29.40;44.80
9837;DHT22;4957;51.412;6.724;2022-08-21T09:20:08;29.70;44.10
9837;DHT22;4957;51.412;6.724;2022-08-21T09:23:02;29.80;43.60
9837;DHT22;4957;51.412;6.724;2022-08-21T09:25:42;29.90;44.40
9837;DHT22;4957;51.412;6.724;2022-08-21T09:28:12;30.10;43.30
9837;DHT22;4957;51.412;6.724;2022-08-21T09:30:40;30.30;43.00
9837;DHT22;4957;51.412;6.724;2022-08-21T09:33:07;30.50;42.70
9837;DHT22;4957;51.412;6.724;2022-08-21T09:35:32;30.60;42.20
9837;DHT22;4957;51.412;6.724;2022-08-21T09:38:06;30.80;41.70
9837;DHT22;4957;51.412;6.724;2022-08-21T09:40:46;31.00;41.20
9837;DHT22;4957;51.412;6.724;2022-08-21T09:43:20;31.20;41.00
9837;DHT22;4957;51.412;6.724;2022-08-21T09:45:48;31.30;40.70
9837;DHT22;4957;51.412;6.724;2022-08-21T09:48:19;31.50;40.90
9837;DHT22;4957;51.412;6.724;2022-08-21T09:50:46;31.70;40.40
9837;DHT22;4957;51.412;6.724;2022-08-21T09:55:53;32.00;39.20
9837;DHT22;4957;51.412;6.724;2022-08-21T09:58:40;32.10;38.70
9837;DHT22;4957;51.412;6.724;2022-08-21T10:01:13;32.40;38.90
9837;DHT22;4957;51.412;6.724;2022-08-21T10:03:40;32.60;38.30
9837;DHT22;4957;51.412;6.724;2022-08-21T10:06:07;32.70;39.00
9837;DHT22;4957;51.412;6.724;2022-08-21T10:08:38;32.90;38.00
9837;DHT22;4957;51.412;6.724;2022-08-21T10:11:10;33.10;38.10
9837;DHT22;4957;51.412;6.724;2022-08-21T10:13:56;33.20;37.40
9837;DHT22;4957;51.412;6.724;2022-08-21T10:24:52;33.80;36.10
9837;DHT22;4957;51.412;6.724;2022-08-21T10:44:12;34.90;34.60
9837;DHT22;4957;51.412;6.724;2022-08-21T10:46:51;34.90;34.20
9837;DHT22;4957;51.412;6.724;2022-08-21T10:55:14;35.10;34.50
9837;DHT22;4957;51.412;6.724;2022-08-21T10:58:02;35.10;33.80
9837;DHT22;4957;51.412;6.724;2022-08-21T11:01:08;35.20;33.80
9837;DHT22;4957;51.412;6.724;2022-08-21T11:06:31;35.20;33.60
9837;DHT22;4957;51.412;6.724;2022-08-21T11:09:10;35.10;33.30
9837;DHT22;4957;51.412;6.724;2022-08-21T11:11:41;35.10;33.80
9837;DHT22;4957;51.412;6.724;2022-08-21T11:14:21;35.10;33.40
9837;DHT22;4957;51.412;6.724;2022-08-21T11:16:57;35.10;32.40
9837;DHT22;4957;51.412;6.724;2022-08-21T11:19:46;35.10;32.90
9837;DHT22;4957;51.412;6.724;2022-08-21T11:24:49;35.10;32.70
9837;DHT22;4957;51.412;6.724;2022-08-21T11:27:42;35.10;33.60
9837;DHT22;4957;51.412;6.724;2022-08-21T11:30:10;35.00;31.90
9837;DHT22;4957;51.412;6.724;2022-08-21T11:35:33;35.10;32.00
9837;DHT22;4957;51.412;6.724;2022-08-21T11:43:43;35.10;32.30
9837;DHT22;4957;51.412;6.724;2022-08-21T11:46:31;35.20;31.60
9837;DHT22;4957;51.412;6.724;2022-08-21T11:52:48;35.40;31.30
9837;DHT22;4957;51.412;6.724;2022-08-21T11:55:26;35.40;31.20
9837;DHT22;4957;51.412;6.724;2022-08-21T11:58:39;35.50;31.20
9837;DHT22;4957;51.412;6.724;2022-08-21T12:00:49;35.50;31.20
9837;DHT22;4957;51.412;6.724;2022-08-21T12:03:38;35.60;31.10
9837;DHT22;4957;51.412;6.724;2022-08-21T12:06:12;35.60;30.40
9837;DHT22;4957;51.412;6.724;2022-08-21T12:08:44;35.70;31.10
9837;DHT22;4957;51.412;6.724;2022-08-21T12:11:23;35.70;31.70
9837;DHT22;4957;51.412;6.724;2022-08-21T12:16:42;35.80;30.60
9837;DHT22;4957;51.412;6.724;2022-08-21T12:21:58;35.70;30.30
9837;DHT22;4957;51.412;6.724;2022-08-21T12:27:40;35.70;30.90
9837;DHT22;4957;51.412;6.724;2022-08-21T12:33:04;35.60;30.60
9837;DHT22;4957;51.412;6.724;2022-08-21T12:35:41;35.50;31.00
9837;DHT22;4957;51.412;6.724;2022-08-21T12:40:55;35.30;30.50
9837;DHT22;4957;51.412;6.724;2022-08-21T12:43:43;35.30;30.60
9837;DHT22;4957;51.412;6.724;2022-08-21T12:46:21;35.30;30.90
9837;DHT22;4957;51.412;6.724;2022-08-21T12:48:52;35.20;31.10
9837;DHT22;4957;51.412;6.724;2022-08-21T12:54:31;35.00;31.00
9837;DHT22;4957;51.412;6.724;2022-08-21T12:57:03;34.90;31.00
9837;DHT22;4957;51.412;6.724;2022-08-21T12:59:30;34.90;31.50
9837;DHT22;4957;51.412;6.724;2022-08-21T13:01:57;34.80;31.20
9837;DHT22;4957;51.412;6.724;2022-08-21T13:04:35;34.70;31.10
9837;DHT22;4957;51.412;6.724;2022-08-21T13:07:06;34.70;31.10
9837;DHT22;4957;51.412;6.724;2022-08-21T13:09:33;34.50;31.30
9837;DHT22;4957;51.412;6.724;2022-08-21T13:11:59;34.50;31.40
9837;DHT22;4957;51.412;6.724;2022-08-21T13:14:36;34.40;31.40
9837;DHT22;4957;51.412;6.724;2022-08-21T13:17:04;34.30;31.00
9837;DHT22;4957;51.412;6.724;2022-08-21T13:19:31;34.20;31.30
9837;DHT22;4957;51.412;6.724;2022-08-21T13:21:58;34.20;31.40
9837;DHT22;4957;51.412;6.724;2022-08-21T13:24:25;34.10;31.40
9837;DHT22;4957;51.412;6.724;2022-08-21T13:26:54;34.00;31.70
9837;DHT22;4957;51.412;6.724;2022-08-21T13:29:27;34.00;31.10
9837;DHT22;4957;51.412;6.724;2022-08-21T13:32:01;33.90;31.50
9837;DHT22;4957;51.412;6.724;2022-08-21T13:34:34;33.90;31.90
9837;DHT22;4957;51.412;6.724;2022-08-21T13:37:04;33.80;32.40
9837;DHT22;4957;51.412;6.724;2022-08-21T13:39:31;33.70;32.30
9837;DHT22;4957;51.412;6.724;2022-08-21T13:42:03;33.60;32.50
9837;DHT22;4957;51.412;6.724;2022-08-21T13:44:41;33.50;33.10
9837;DHT22;4957;51.412;6.724;2022-08-21T13:47:10;33.40;32.50
9837;DHT22;4957;51.412;6.724;2022-08-21T13:49:39;33.30;32.50
9837;DHT22;4957;51.412;6.724;2022-08-21T13:52:16;33.20;32.80
9837;DHT22;4957;51.412;6.724;2022-08-21T13:54:43;33.10;32.40
9837;DHT22;4957;51.412;6.724;2022-08-21T13:57:25;33.10;32.30
9837;DHT22;4957;51.412;6.724;2022-08-21T13:59:51;33.00;32.00
9837;DHT22;4957;51.412;6.724;2022-08-21T14:02:23;32.90;32.50
9837;DHT22;4957;51.412;6.724;2022-08-21T14:04:58;32.80;32.10
9837;DHT22;4957;51.412;6.724;2022-08-21T14:07:39;32.80;32.60
9837;DHT22;4957;51.412;6.724;2022-08-21T14:10:13;32.70;32.40
9837;DHT22;4957;51.412;6.724;2022-08-21T14:12:47;32.70;32.70
9837;DHT22;4957;51.412;6.724;2022-08-21T14:15:15;32.60;32.80
9837;DHT22;4957;51.412;6.724;2022-08-21T14:17:42;32.60;33.20
9837;DHT22;4957;51.412;6.724;2022-08-21T14:20:11;32.60;33.60
9837;DHT22;4957;51.412;6.724;2022-08-21T14:25:11;32.60;34.60
9837;DHT22;4957;51.412;6.724;2022-08-21T14:27:44;32.50;34.50
9837;DHT22;4957;51.412;6.724;2022-08-21T14:30:27;32.50;34.70
9837;DHT22;4957;51.412;6.724;2022-08-21T14:32:53;32.50;34.80
9837;DHT22;4957;51.412;6.724;2022-08-21T14:35:19;32.40;35.50
9837;DHT22;4957;51.412;6.724;2022-08-21T14:37:47;32.40;34.80
9837;DHT22;4957;51.412;6.724;2022-08-21T14:40:13;32.40;34.40
9837;DHT22;4957;51.412;6.724;2022-08-21T14:42:41;32.50;34.50
9837;DHT22;4957;51.412;6.724;2022-08-21T14:45:28;32.40;34.20
9837;DHT22;4957;51.412;6.724;2022-08-21T14:47:55;32.40;33.90
9837;DHT22;4957;51.412;6.724;2022-08-21T14:50:21;32.40;34.10
9837;DHT22;4957;51.412;6.724;2022-08-21T14:52:47;32.30;33.80
9837;DHT22;4957;51.412;6.724;2022-08-21T14:55:14;32.30;33.90
9837;DHT22;4957;51.412;6.724;2022-08-21T14:57:42;32.30;34.10
9837;DHT22;4957;51.412;6.724;2022-08-21T15:00:11;32.20;34.10
9837;DHT22;4957;51.412;6.724;2022-08-21T15:02:37;32.20;34.10
9837;DHT22;4957;51.412;6.724;2022-08-21T15:05:04;32.20;34.10
9837;DHT22;4957;51.412;6.724;2022-08-21T15:07:30;32.10;34.70
9837;DHT22;4957;51.412;6.724;2022-08-21T15:09:55;32.00;34.20
9837;DHT22;4957;51.412;6.724;2022-08-21T15:12:22;32.00;34.30
9837;DHT22;4957;51.412;6.724;2022-08-21T15:14:48;32.00;34.30
9837;DHT22;4957;51.412;6.724;2022-08-21T15:17:14;31.90;34.20
9837;DHT22;4957;51.412;6.724;2022-08-21T15:19:40;31.90;34.40
9837;DHT22;4957;51.412;6.724;2022-08-21T15:22:05;31.80;34.10
9837;DHT22;4957;51.412;6.724;2022-08-21T15:24:31;31.80;34.20
9837;DHT22;4957;51.412;6.724;2022-08-21T15:27:00;31.70;34.60
9837;DHT22;4957;51.412;6.724;2022-08-21T15:29:26;31.60;33.90
9837;DHT22;4957;51.412;6.724;2022-08-21T15:31:57;31.50;33.90
9837;DHT22;4957;51.412;6.724;2022-08-21T15:34:25;31.50;34.50
9837;DHT22;4957;51.412;6.724;2022-08-21T15:36:52;31.50;34.90
9837;DHT22;4957;51.412;6.724;2022-08-21T15:39:18;31.40;34.70
9837;DHT22;4957;51.412;6.724;2022-08-21T15:41:45;31.40;34.60
9837;DHT22;4957;51.412;6.724;2022-08-21T15:44:12;31.30;34.10
9837;DHT22;4957;51.412;6.724;2022-08-21T15:46:39;31.20;33.90
9837;DHT22;4957;51.412;6.724;2022-08-21T15:49:05;31.10;34.30
9837;DHT22;4957;51.412;6.724;2022-08-21T15:51:32;31.00;34.30
9837;DHT22;4957;51.412;6.724;2022-08-21T15:53:58;31.00;34.60
9837;DHT22;4957;51.412;6.724;2022-08-21T15:56:35;30.90;34.80
9837;DHT22;4957;51.412;6.724;2022-08-21T15:59:05;30.80;34.60
9837;DHT22;4957;51.412;6.724;2022-08-21T16:01:31;30.80;34.70
9837;DHT22;4957;51.412;6.724;2022-08-21T16:03:57;30.80;34.90
9837;DHT22;4957;51.412;6.724;2022-08-21T16:06:23;30.70;34.90
9837;DHT22;4957;51.412;6.724;2022-08-21T16:08:49;30.70;35.10
9837;DHT22;4957;51.412;6.724;2022-08-21T16:11:15;30.60;35.00
9837;DHT22;4957;51.412;6.724;2022-08-21T16:13:44;30.60;35.00
9837;DHT22;4957;51.412;6.724;2022-08-21T16:16:14;30.60;35.30
9837;DHT22;4957;51.412;6.724;2022-08-21T16:18:41;30.50;34.80
9837;DHT22;4957;51.412;6.724;2022-08-21T16:21:07;30.40;34.90
9837;DHT22;4957;51.412;6.724;2022-08-21T16:23:34;30.40;35.10
9837;DHT22;4957;51.412;6.724;2022-08-21T16:26:04;30.30;34.80
9837;DHT22;4957;51.412;6.724;2022-08-21T16:28:31;30.30;35.20
9837;DHT22;4957;51.412;6.724;2022-08-21T16:30:58;30.30;35.60
9837;DHT22;4957;51.412;6.724;2022-08-21T16:35:53;30.20;35.20
9837;DHT22;4957;51.412;6.724;2022-08-21T16:38:19;30.10;35.20
9837;DHT22;4957;51.412;6.724;2022-08-21T16:40:45;30.10;35.40
9837;DHT22;4957;51.412;6.724;2022-08-21T16:43:11;30.00;35.40
9837;DHT22;4957;51.412;6.724;2022-08-21T16:45:37;30.00;35.40
9837;DHT22;4957;51.412;6.724;2022-08-21T16:48:03;30.00;35.80
9837;DHT22;4957;51.412;6.724;2022-08-21T16:50:34;30.00;35.70
9837;DHT22;4957;51.412;6.724;2022-08-21T16:53:00;30.00;35.80
9837;DHT22;4957;51.412;6.724;2022-08-21T16:55:26;30.00;35.40
9837;DHT22;4957;51.412;6.724;2022-08-21T16:57:53;30.00;35.40
9837;DHT22;4957;51.412;6.724;2022-08-21T17:00:19;29.90;35.10
9837;DHT22;4957;51.412;6.724;2022-08-21T17:02:50;29.90;35.30
9837;DHT22;4957;51.412;6.724;2022-08-21T17:05:18;29.90;35.30
9837;DHT22;4957;51.412;6.724;2022-08-21T17:07:44;29.80;35.30
9837;DHT22;4957;51.412;6.724;2022-08-21T17:10:12;29.80;35.30
9837;DHT22;4957;51.412;6.724;2022-08-21T17:12:41;29.80;35.30
9837;DHT22;4957;51.412;6.724;2022-08-21T17:15:21;29.70;35.20
9837;DHT22;4957;51.412;6.724;2022-08-21T17:17:53;29.70;35.20
9837;DHT22;4957;51.412;6.724;2022-08-21T17:20:21;29.60;35.20
9837;DHT22;4957;51.412;6.724;2022-08-21T17:22:50;29.50;35.80
9837;DHT22;4957;51.412;6.724;2022-08-21T17:25:29;29.50;35.60
9837;DHT22;4957;51.412;6.724;2022-08-21T17:28:00;29.40;35.10
9837;DHT22;4957;51.412;6.724;2022-08-21T17:30:27;29.40;36.10
9837;DHT22;4957;51.412;6.724;2022-08-21T17:32:54;29.40;35.50
9837;DHT22;4957;51.412;6.724;2022-08-21T17:35:21;29.30;35.40
9837;DHT22;4957;51.412;6.724;2022-08-21T17:37:47;29.30;35.50
9837;DHT22;4957;51.412;6.724;2022-08-21T17:40:14;29.20;35.50
9837;DHT22;4957;51.412;6.724;2022-08-21T17:42:45;29.10;35.70